Time;durP1;ratioP1;P1;durP2;ratioP2;P2;SDS_P1;SDS_P2;PMS_P1;PMS_P2;Temp;Humidity;BMP_temperature;BMP_pressure;BME280_temperature;BME280_humidity;BME280_pressure;Samples;Min_cycle;Max_cycle;Signal;HPM_P1;HPM_P2
2024/01/10 00:01:32;;;;;;;;;48.50;44.75;;;;;1.74;73.01;101850.69;4872943;29;45627;-84
2024/01/10 00:03:58;;;;;;;;;47.00;42.50;;;;;1.85;73.38;101855.75;4871184;29;56771;-85
2024/01/10 00:06:23;;;;;;;;;45.75;44.25;;;;;1.92;73.17;101850.09;4887620;28;45411;-85
2024/01/10 00:08:50;;;;;;;;;45.75;40.25;;;;;1.88;71.79;101848.06;4872888;29;47171;-85
2024/01/10 00:11:15;;;;;;;;;36.25;33.50;;;;;1.74;72.54;101849.81;4856635;29;45532;-85
2024/01/10 00:13:41;;;;;;;;;46.00;42.25;;;;;1.76;73.49;101859.56;4886800;29;44839;-85
2024/01/10 00:16:06;;;;;;;;;39.25;39.00;;;;;1.84;73.15;101853.91;4871590;29;45479;-85
2024/01/10 00:18:32;;;;;;;;;41.50;37.00;;;;;1.79;73.60;101844.03;4886041;29;47189;-84
2024/01/10 00:20:57;;;;;;;;;48.75;42.50;;;;;1.78;74.02;101833.47;4888404;29;45423;-85
2024/01/10 00:23:23;;;;;;;;;40.25;38.50;;;;;1.86;74.06;101847.06;4888005;29;45413;-85
2024/01/10 00:25:48;;;;;;;;;42.25;37.50;;;;;1.91;74.52;101853.53;4887877;29;45458;-85
2024/01/10 00:28:18;;;;;;;;;46.75;44.50;;;;;1.97;74.43;101838.22;4888567;29;47995;-85
2024/01/10 00:30:47;;;;;;;;;35.50;30.00;;;;;2.07;74.43;101845.88;4887563;29;45506;-84
2024/01/10 00:33:14;;;;;;;;;42.50;37.75;;;;;2.17;74.43;101848.31;4887303;28;45882;-84
2024/01/10 00:35:39;;;;;;;;;33.25;27.50;;;;;2.25;74.35;101837.41;4872542;29;45459;-84
2024/01/10 00:38:05;;;;;;;;;43.75;39.00;;;;;2.26;74.51;101831.34;4872463;28;46810;-85
2024/01/10 00:40:30;;;;;;;;;43.50;36.25;;;;;2.32;72.94;101836.97;4887853;29;45483;-84
2024/01/10 00:42:55;;;;;;;;;47.25;39.75;;;;;2.25;73.40;101837.41;4869679;29;45563;-84
2024/01/10 00:45:21;;;;;;;;;52.25;45.50;;;;;2.26;73.20;101836.59;4886712;28;45477;-85
2024/01/10 00:47:49;;;;;;;;;54.00;45.75;;;;;2.27;73.52;101822.66;4890782;28;45081;-85
2024/01/10 00:50:14;;;;;;;;;50.25;41.25;;;;;2.17;73.29;101837.81;4890908;29;45457;-84
2024/01/10 00:52:40;;;;;;;;;59.00;43.75;;;;;2.09;72.62;101828.53;4887250;29;45392;-85
2024/01/10 00:55:07;;;;;;;;;41.25;35.50;;;;;2.02;72.54;101835.88;4889007;29;44870;-84
2024/01/10 00:57:32;;;;;;;;;42.75;34.25;;;;;1.90;73.36;101822.84;4874092;29;46967;-84
2024/01/10 00:59:58;;;;;;;;;43.75;41.00;;;;;1.93;73.47;101834.47;4891202;28;44873;-85
2024/01/10 01:02:23;;;;;;;;;45.75;41.00;;;;;1.88;73.30;101827.09;4894026;29;45470;-85
2024/01/10 01:04:49;;;;;;;;;42.75;37.25;;;;;1.90;73.97;101833.34;4889308;29;45605;-84
2024/01/10 01:07:14;;;;;;;;;43.50;35.25;;;;;1.91;74.29;101827.31;4887004;29;45513;-84
2024/01/10 01:09:40;;;;;;;;;57.50;45.75;;;;;1.90;73.68;101817.59;4890109;29;44902;-84
2024/01/10 01:12:05;;;;;;;;;41.50;37.75;;;;;1.93;74.04;101817.81;4887660;29;45522;-84
2024/01/10 01:14:30;;;;;;;;;47.50;42.75;;;;;2.00;74.38;101820.06;4887782;29;45478;-84
2024/01/10 01:16:56;;;;;;;;;35.75;33.00;;;;;2.04;74.00;101816.84;4888647;29;45532;-84
2024/01/10 01:19:21;;;;;;;;;43.75;36.50;;;;;1.99;73.40;101811.25;4873830;29;44916;-84
2024/01/10 01:21:47;;;;;;;;;52.25;46.25;;;;;2.00;73.75;101827.94;4890486;28;45556;-84
2024/01/10 01:24:12;;;;;;;;;46.00;42.25;;;;;2.01;74.37;101814.00;4887767;28;45465;-84
2024/01/10 01:26:38;;;;;;;;;58.25;46.00;;;;;2.04;74.99;101819.47;4885643;29;48622;-84
2024/01/10 01:29:03;;;;;;;;;47.00;42.25;;;;;2.08;72.98;101810.97;4887873;29;45396;-85
2024/01/10 01:31:29;;;;;;;;;42.50;40.50;;;;;2.10;73.64;101825.09;4889936;29;45375;-85
2024/01/10 01:33:55;;;;;;;;;46.75;44.50;;;;;2.00;74.37;101814.81;4890469;29;45529;-85
2024/01/10 01:36:20;;;;;;;;;47.00;44.75;;;;;2.06;74.85;101802.09;4886738;28;47569;-85
2024/01/10 01:38:46;;;;;;;;;57.25;44.50;;;;;2.13;74.89;101806.03;4894847;28;45348;-83
2024/01/10 01:41:12;;;;;;;;;46.00;40.75;;;;;2.25;74.61;101811.16;4899867;28;44799;-83
2024/01/10 01:43:37;;;;;;;;;48.75;39.50;;;;;2.32;74.37;101818.59;4897744;28;44906;-83
2024/01/10 01:46:03;;;;;;;;;39.25;37.00;;;;;2.42;74.58;101818.38;4898828;29;45434;-81
2024/01/10 01:48:29;;;;;;;;;42.25;37.50;;;;;2.46;74.91;101817.78;4895332;29;44901;-80
2024/01/10 01:51:02;;;;;;;;;42.50;40.00;;;;;2.52;73.64;101820.78;4898200;28;45498;-82
2024/01/10 01:53:28;;;;;;;;;46.50;42.00;;;;;2.30;73.74;101813.28;4897583;29;44814;-82
2024/01/10 01:55:54;;;;;;;;;43.00;40.50;;;;;2.30;73.32;101817.59;4898517;29;45196;-82
2024/01/10 01:58:22;;;;;;;;;47.25;41.50;;;;;2.31;73.91;101816.81;4898351;29;44994;-81
2024/01/10 02:00:47;;;;;;;;;43.33;35.33;;;;;2.32;74.21;101813.34;4898201;28;44857;-81
2024/01/10 02:03:19;;;;;;;;;39.50;36.50;;;;;2.40;74.18;101814.75;4900098;28;44808;-82
2024/01/10 02:05:46;;;;;;;;;47.75;43.75;;;;;2.49;74.12;101825.88;4898655;28;45235;-82
2024/01/10 02:08:11;;;;;;;;;47.00;42.00;;;;;2.38;73.87;101812.06;4898838;28;44780;-82
2024/01/10 02:11:11;;;;;;;;;49.33;41.67;;;;;2.55;73.89;101814.84;4898780;28;44947;-82
2024/01/10 02:13:36;;;;;;;;;44.25;37.75;;;;;2.38;73.43;101811.13;4897408;28;44945;-82
2024/01/10 02:16:03;;;;;;;;;37.50;35.25;;;;;2.38;73.72;101793.69;4881692;29;47510;-83
2024/01/10 02:18:29;;;;;;;;;35.00;30.25;;;;;2.32;73.27;101809.03;4899856;28;45276;-83
2024/01/10 02:20:54;;;;;;;;;39.25;33.75;;;;;2.25;73.10;101805.91;4899847;29;45822;-84
2024/01/10 02:27:03;;;;;;;;;55.25;44.50;;;;;2.27;74.02;101814.78;4897967;28;44874;-83
2024/01/10 02:29:28;;;;;;;;;53.50;42.75;;;;;2.13;72.92;101806.91;4897220;29;44802;-83
2024/01/10 02:31:54;;;;;;;;;45.50;41.00;;;;;2.06;74.22;101807.34;4898093;29;44869;-83
2024/01/10 02:34:19;;;;;;;;;55.50;46.75;;;;;2.02;73.79;101789.59;4898964;28;44886;-83
2024/01/10 02:36:45;;;;;;;;;50.50;41.75;;;;;2.08;73.10;101810.97;4899311;28;45373;-83
2024/01/10 02:39:11;;;;;;;;;44.75;39.25;;;;;2.08;74.24;101804.78;4897588;28;44926;-83
2024/01/10 02:41:36;;;;;;;;;45.50;32.25;;;;;2.07;73.70;101801.28;4898599;29;45375;-83
2024/01/10 02:44:01;;;;;;;;;48.25;43.50;;;;;2.04;73.36;101795.84;4899194;29;45141;-83
2024/01/10 02:46:29;;;;;;;;;36.50;30.50;;;;;2.02;73.35;101801.78;4897294;29;47547;-83
2024/01/10 02:48:55;;;;;;;;;48.00;43.75;;;;;2.06;73.94;101809.97;4896705;28;44793;-84
2024/01/10 02:51:21;;;;;;;;;43.75;41.50;;;;;2.16;74.07;101808.81;4895764;29;45272;-83
2024/01/10 02:53:47;;;;;;;;;51.00;44.00;;;;;2.13;74.23;101804.28;4897447;29;44797;-82
2024/01/10 02:56:12;;;;;;;;;36.25;35.25;;;;;2.20;73.97;101811.78;4899076;28;45157;-82
2024/01/10 02:58:37;;;;;;;;;46.50;43.25;;;;;2.19;73.05;101794.19;4898705;29;44742;-83
2024/01/10 03:01:03;;;;;;;;;39.75;38.50;;;;;2.20;74.10;101798.66;4918072;29;44986;-82
2024/01/10 03:03:28;;;;;;;;;47.50;43.00;;;;;2.14;73.38;101790.38;4918595;29;44848;-82
2024/01/10 03:05:54;;;;;;;;;50.50;42.25;;;;;2.13;73.54;101795.53;4901633;29;47006;-83
2024/01/10 03:08:19;;;;;;;;;41.25;36.25;;;;;2.05;72.85;101791.50;4917881;29;44799;-83
2024/01/10 03:10:45;;;;;;;;;59.00;47.75;;;;;2.02;73.40;101781.72;4918731;29;44958;-82
2024/01/10 03:13:10;;;;;;;;;44.25;42.75;;;;;1.96;73.02;101797.97;4901821;29;45324;-82
2024/01/10 03:15:36;;;;;;;;;28.00;21.00;;;;;1.84;72.88;101780.47;4901121;29;47178;-81
2024/01/10 03:18:01;;;;;;;;;47.50;42.25;;;;;1.85;73.31;101803.28;4918496;29;44789;-83
2024/01/10 03:20:28;;;;;;;;;45.75;42.50;;;;;1.86;73.22;101787.66;4919155;29;44931;-82
2024/01/10 03:22:53;;;;;;;;;43.75;43.00;;;;;1.83;73.24;101787.44;4903465;29;44942;-81
2024/01/10 03:25:19;;;;;;;;;42.25;39.50;;;;;1.75;72.75;101776.44;4919547;29;45249;-82
2024/01/10 03:27:44;;;;;;;;;46.50;41.25;;;;;1.75;72.79;101793.91;4901403;29;44734;-82
2024/01/10 03:30:10;;;;;;;;;45.50;38.75;;;;;1.77;73.17;101792.28;4902957;29;45184;-82
2024/01/10 03:32:35;;;;;;;;;43.50;39.50;;;;;1.68;73.83;101774.25;4920302;28;44860;-83
2024/01/10 03:35:01;;;;;;;;;52.50;47.25;;;;;1.85;74.47;101784.94;4920180;29;45224;-83
2024/01/10 03:37:26;;;;;;;;;41.00;40.50;;;;;1.96;74.31;101778.66;4919974;29;44845;-82
2024/01/10 03:39:52;;;;;;;;;31.75;28.25;;;;;2.02;73.97;101773.84;4902433;28;44999;-82
2024/01/10 03:42:18;;;;;;;;;43.25;41.00;;;;;2.14;74.29;101776.31;4902432;28;44912;-82
2024/01/10 03:44:44;;;;;;;;;51.50;46.00;;;;;2.03;73.04;101775.66;4918589;29;45162;-83
2024/01/10 03:47:09;;;;;;;;;50.00;43.75;;;;;1.98;73.08;101777.06;4902425;28;44938;-81
2024/01/10 03:49:35;;;;;;;;;43.75;37.50;;;;;1.90;73.38;101778.25;4902486;28;44844;-83
2024/01/10 03:52:07;;;;;;;;;43.50;38.50;;;;;2.06;73.38;101770.63;4900009;29;44897;-83
2024/01/10 03:54:33;;;;;;;;;47.50;39.00;;;;;2.02;73.91;101773.84;4898024;29;47058;-83
2024/01/10 03:56:59;;;;;;;;;38.50;36.50;;;;;2.10;73.67;101780.50;4898318;29;44787;-81
2024/01/10 03:59:24;;;;;;;;;44.00;40.50;;;;;2.10;72.90;101774.31;4898242;29;45238;-82
2024/01/10 04:01:49;;;;;;;;;42.50;34.75;;;;;2.12;73.23;101785.81;4897946;29;45325;-82
2024/01/10 04:04:15;;;;;;;;;43.00;33.50;;;;;2.12;72.86;101784.13;4899365;29;44920;-83
2024/01/10 04:06:40;;;;;;;;;34.00;32.00;;;;;2.07;72.97;101766.25;4900683;29;44757;-82
2024/01/10 04:09:08;;;;;;;;;35.25;32.75;;;;;2.10;72.59;101772.63;4898410;28;44973;-82
2024/01/10 04:11:33;;;;;;;;;52.00;41.25;;;;;2.05;71.55;101778.38;4897519;29;44943;-82
2024/01/10 04:13:59;;;;;;;;;45.00;42.25;;;;;2.03;72.26;101769.50;4899774;29;45342;-82
2024/01/10 04:16:27;;;;;;;;;34.00;34.00;;;;;2.14;73.08;101777.25;4899227;29;44726;-82
2024/01/10 04:18:52;;;;;;;;;44.00;37.00;;;;;2.18;73.61;101776.66;4888828;28;44818;-81
2024/01/10 04:21:18;;;;;;;;;43.50;38.50;;;;;2.20;71.36;101774.09;4863521;29;44830;-83
2024/01/10 04:23:43;;;;;;;;;57.25;46.75;;;;;2.10;71.87;101762.13;4861024;29;46868;-82
2024/01/10 04:26:08;;;;;;;;;50.50;43.00;;;;;2.11;72.28;101769.16;4862954;29;45316;-82
2024/01/10 04:28:34;;;;;;;;;39.50;31.00;;;;;2.09;71.85;101760.28;4864782;29;44807;-82
2024/01/10 04:30:59;;;;;;;;;45.75;38.75;;;;;2.09;71.79;101755.03;4864116;29;45442;-82
2024/01/10 04:33:25;;;;;;;;;37.00;32.67;;;;;2.08;72.25;101748.00;4862020;29;47079;-82
2024/01/10 04:35:50;;;;;;;;;39.00;36.50;;;;;2.13;72.85;101753.53;4864716;29;44690;-83
2024/01/10 04:38:15;;;;;;;;;43.33;38.67;;;;;2.11;72.18;101753.44;4862308;29;44896;-82
2024/01/10 04:40:41;;;;;;;;;43.50;38.75;;;;;2.07;71.85;101751.41;4864806;29;44853;-81
2024/01/10 04:43:06;;;;;;;;;46.50;41.25;;;;;2.05;72.35;101746.88;4860953;29;47448;-82
2024/01/10 04:45:32;;;;;;;;;49.50;40.25;;;;;2.09;71.97;101752.44;4863373;29;44838;-82
2024/01/10 04:47:58;;;;;;;;;54.50;43.75;;;;;2.10;72.30;101762.13;4861712;29;44717;-82
2024/01/10 04:50:23;;;;;;;;;43.00;36.75;;;;;2.03;71.11;101741.53;4860691;29;44846;-82
2024/01/10 04:52:48;;;;;;;;;47.00;44.25;;;;;2.10;71.83;101746.38;4886115;29;47219;-82
2024/01/10 04:55:14;;;;;;;;;43.50;41.50;;;;;2.10;71.37;101751.63;4879122;29;44766;-82
2024/01/10 04:57:39;;;;;;;;;48.33;37.33;;;;;2.05;72.40;101734.66;4880500;29;45100;-82
2024/01/10 05:00:06;;;;;;;;;45.75;40.75;;;;;2.16;71.77;101738.91;4907859;28;45192;-82
2024/01/10 05:02:31;;;;;;;;;42.00;38.25;;;;;2.14;72.20;101735.28;4901535;29;44988;-81
2024/01/10 05:04:59;;;;;;;;;49.00;34.50;;;;;2.26;71.52;101742.09;4900971;28;44771;-82
2024/01/10 05:07:24;;;;;;;;;42.75;37.50;;;;;2.23;72.47;101737.56;4897735;29;45317;-83
2024/01/10 05:09:50;;;;;;;;;33.75;31.25;;;;;2.25;72.96;101729.81;4900906;28;44848;-82
2024/01/10 05:12:15;;;;;;;;;51.25;39.00;;;;;2.34;73.14;101735.63;4898222;29;48694;-82
2024/01/10 05:14:41;;;;;;;;;43.00;38.50;;;;;2.43;72.73;101738.84;4898768;28;44828;-82
2024/01/10 05:17:06;;;;;;;;;44.50;38.25;;;;;2.46;71.74;101736.38;4898765;28;44761;-83
2024/01/10 05:19:32;;;;;;;;;43.25;41.25;;;;;2.52;70.97;101731.50;4897244;28;44909;-83
2024/01/10 05:21:57;;;;;;;;;37.00;35.00;;;;;2.48;72.13;101724.25;4899452;28;45369;-83
2024/01/10 05:24:22;;;;;;;;;46.50;42.25;;;;;2.56;71.32;101727.38;4899078;28;44782;-83
2024/01/10 05:26:51;;;;;;;;;41.25;40.00;;;;;2.58;72.01;101737.16;4898120;28;44902;-83
2024/01/10 05:29:17;;;;;;;;;39.33;37.33;;;;;2.55;71.42;101721.22;4898544;29;44787;-82
2024/01/10 05:31:43;;;;;;;;;52.00;43.75;;;;;2.52;71.99;101725.38;4899144;29;45078;-83
2024/01/10 05:34:08;;;;;;;;;41.00;35.25;;;;;2.64;70.85;101727.84;4897076;28;44816;-82
2024/01/10 05:36:34;;;;;;;;;47.50;40.50;;;;;2.66;71.99;101729.75;4896624;29;44829;-83
2024/01/10 05:39:00;;;;;;;;;39.33;36.33;;;;;2.78;70.89;101732.22;4897893;28;44801;-81
2024/01/10 05:41:26;;;;;;;;;42.25;36.00;;;;;2.56;70.26;101715.13;4897014;29;47373;-83
2024/01/10 05:43:51;;;;;;;;;48.25;40.50;;;;;2.58;70.75;101726.63;4899196;28;44790;-83
2024/01/10 05:50:13;;;;;;;;;43.75;37.75;;;;;2.63;71.92;101733.94;4900260;28;44817;-83
2024/01/10 05:52:39;;;;;;;;;45.25;36.75;;;;;2.37;70.08;101728.84;4899384;28;46936;-83
2024/01/10 05:55:08;;;;;;;;;45.25;41.00;;;;;2.38;69.23;101729.75;4899677;28;55020;-83
2024/01/10 05:57:37;;;;;;;;;36.50;34.00;;;;;2.28;69.68;101727.34;4900170;28;45537;-82
2024/01/10 06:00:04;;;;;;;;;45.75;41.25;;;;;2.27;70.22;101738.69;4902537;28;44827;-83
2024/01/10 06:02:30;;;;;;;;;40.00;34.50;;;;;2.11;69.35;101727.19;4900528;29;47122;-83
2024/01/10 06:04:56;;;;;;;;;37.50;30.25;;;;;2.18;71.16;101729.41;4899383;29;44768;-82
2024/01/10 06:07:21;;;;;;;;;44.00;37.50;;;;;2.15;69.53;101710.81;4899846;28;45344;-83
2024/01/10 06:09:47;;;;;;;;;26.00;26.00;;;;;2.27;69.67;101728.19;4900480;28;44815;-83
2024/01/10 06:12:14;;;;;;;;;42.50;34.25;;;;;2.27;69.57;101734.31;4899203;29;47208;-82
2024/01/10 06:14:39;;;;;;;;;34.00;31.25;;;;;2.28;69.41;101724.72;4912954;29;44851;-83
2024/01/10 06:17:05;;;;;;;;;37.50;31.25;;;;;2.28;69.64;101736.13;4897964;29;44832;-83
2024/01/10 06:19:31;;;;;;;;;37.00;34.00;;;;;2.30;70.46;101731.91;4898794;29;45541;-82
2024/01/10 06:21:57;;;;;;;;;37.75;35.00;;;;;2.32;69.92;101727.66;4896432;28;46377;-82
2024/01/10 06:24:22;;;;;;;;;38.00;36.25;;;;;2.35;68.69;101719.06;4896789;29;44994;-82
2024/01/10 06:26:49;;;;;;;;;38.50;34.00;;;;;2.45;69.10;101728.44;4912236;29;44821;-82
2024/01/10 06:29:15;;;;;;;;;42.50;34.50;;;;;2.44;69.50;101719.63;4896844;29;45751;-82
2024/01/10 06:31:56;;;;;;;;;41.00;36.00;;;;;2.62;68.40;101732.09;4843733;23;46173;-80
2024/01/10 06:34:21;;;;;;;;;33.00;28.67;;;;;2.50;68.14;101730.50;4927110;28;44950;-81
2024/01/10 06:36:47;;;;;;;;;40.00;40.00;;;;;2.38;66.01;101711.38;4948220;28;45363;-84
2024/01/10 06:44:27;;;;;;;;;43.67;36.33;;;;;2.25;67.00;101714.94;5420114;23;46200;-83
2024/01/10 06:46:53;;;;;;;;;48.33;36.67;;;;;2.26;67.73;101731.59;4947410;28;45286;-83
2024/01/10 06:49:18;;;;;;;;;29.00;28.00;;;;;2.23;67.86;101719.19;4963208;28;44880;-82
2024/01/10 06:51:45;;;;;;;;;29.00;26.00;;;;;2.27;66.97;101733.44;4963991;28;45154;-83
2024/01/10 06:54:11;;;;;;;;;37.00;29.33;;;;;2.20;66.74;101711.13;4948683;28;44750;-83
2024/01/10 06:56:37;;;;;;;;;33.33;29.67;;;;;2.32;66.92;101717.16;4997793;23;45460;-82
2024/01/10 06:59:03;;;;;;;;;19.67;19.67;;;;;2.14;65.45;101719.53;4926473;28;44942;-83
2024/01/10 07:28:16;;;;;;;;;30.00;27.67;;;;;2.39;68.28;101742.06;4613078;23;46649;-83
2024/01/10 07:30:41;;;;;;;;;31.33;25.67;;;;;2.29;66.85;101742.31;4935379;28;44959;-83
2024/01/10 07:38:18;;;;;;;;;37.00;29.33;;;;;2.06;68.71;101705.00;5011072;23;45041;-84
2024/01/10 07:40:44;;;;;;;;;38.75;33.75;;;;;2.29;67.97;101739.69;4963967;28;44871;-83
2024/01/10 07:43:11;;;;;;;;;35.00;32.67;;;;;2.35;68.02;101732.19;4963602;28;45235;-82
2024/01/10 07:45:36;;;;;;;;;32.00;27.00;;;;;2.29;66.51;101723.94;4947718;28;44729;-82
2024/01/10 07:48:02;;;;;;;;;38.00;33.33;;;;;2.24;66.38;101713.13;4947446;28;44854;-83
2024/01/10 07:50:28;;;;;;;;;33.00;27.67;;;;;2.36;67.29;101729.66;4945316;28;44923;-82
2024/01/10 07:52:55;;;;;;;;;34.33;30.33;;;;;2.59;68.51;101748.59;5099800;23;45305;-82
2024/01/10 07:55:29;;;;;;;;;37.00;34.33;;;;;2.63;67.33;101740.09;4963165;28;44817;-83
2024/01/10 07:57:55;;;;;;;;;36.33;33.00;;;;;2.52;65.86;101747.25;4947477;28;44847;-83
2024/01/10 08:02:55;;;;;;;;;28.33;25.33;;;;;2.38;64.55;101727.13;5181715;23;46522;-83
2024/01/10 08:13:07;;;;;;;;;30.00;29.33;;;;;2.72;66.68;101756.38;4956931;23;46613;-83
2024/01/10 08:25:53;;;;;;;;;29.00;23.33;;;;;2.80;66.45;101746.38;5857925;23;46963;-81
2024/01/10 08:33:31;;;;;;;;;33.00;29.67;;;;;2.80;66.23;101759.50;5287362;23;46025;-82
2024/01/10 08:38:32;;;;;;;;;28.00;25.67;;;;;2.69;66.07;101744.81;5786322;23;45981;-82
2024/01/10 08:48:11;;;;;;;;;34.00;32.50;;;;;3.16;65.94;101770.44;5806071;23;45781;31
2024/01/10 08:50:44;;;;;;;;;40.00;37.33;;;;;3.10;66.19;101765.72;4323728;23;45323;-82
2024/01/10 09:47:39;;;;;;;;;32.50;31.50;;;;;3.00;65.78;101792.25;5475695;23;46210;-82
2024/01/10 09:50:07;;;;;;;;;31.00;27.67;;;;;3.07;66.67;101778.69;4921986;28;45484;-82
2024/01/10 09:52:42;;;;;;;;;33.33;30.00;;;;;3.32;66.75;101799.47;4969176;28;44731;-82
2024/01/10 09:55:09;;;;;;;;;39.67;34.67;;;;;3.18;65.59;101771.44;4929407;28;45947;-81
2024/01/10 09:57:36;;;;;;;;;39.00;30.00;;;;;3.37;64.45;101803.31;4924939;28;47513;-83
2024/01/10 10:03:37;;;;;;;;;32.00;29.67;;;;;3.51;64.90;101777.81;4943677;28;44885;-85
2024/01/10 10:06:03;;;;;;;;;37.00;31.00;;;;;3.45;63.21;101787.06;4937545;28;44851;-84
2024/01/10 10:08:29;;;;;;;;;54.33;40.67;;;;;3.46;64.46;101786.25;4937468;28;47728;-80
2024/01/10 10:11:04;;;;;;;;;33.00;29.67;;;;;3.61;64.03;101802.94;4937426;28;45224;-84
2024/01/10 10:13:41;;;;;;;;;29.00;23.67;;;;;3.66;64.60;101780.44;4940680;28;45489;-86
2024/01/10 10:16:09;;;;;;;;;39.67;33.67;;;;;3.55;64.30;101755.22;4908094;28;45434;-83
2024/01/10 10:18:36;;;;;;;;;36.00;30.33;;;;;3.76;62.91;101782.81;4937720;28;48126;-83
2024/01/10 10:21:50;;;;;;;;;42.33;35.33;;;;;3.72;63.64;101754.50;4949868;28;45683;-88
2024/01/10 10:26:54;;;;;;;;;31.33;30.00;;;;;3.62;61.75;101772.31;3849698;23;46357;-83
2024/01/10 10:29:25;;;;;;;;;42.00;36.00;;;;;3.80;63.97;101776.91;4901382;28;48552;-84
2024/01/10 10:31:55;;;;;;;;;35.00;32.33;;;;;3.76;63.13;101782.81;4912341;28;45462;-82
2024/01/10 10:34:22;;;;;;;;;37.33;33.00;;;;;3.80;60.77;101776.91;4945199;28;45437;-82
2024/01/10 10:36:51;;;;;;;;;43.33;30.33;;;;;3.96;63.66;101780.44;4928415;28;45664;-81
2024/01/10 10:39:17;;;;;;;;;35.33;35.33;;;;;3.95;63.91;101786.50;4909700;28;46888;-83
2024/01/10 10:41:48;;;;;;;;;36.33;35.00;;;;;4.14;63.31;101772.66;4936338;28;45402;-86
2024/01/10 10:44:23;;;;;;;;;32.00;30.67;;;;;4.20;63.37;101776.56;4902208;28;45639;-84
2024/01/10 10:46:54;;;;;;;;;39.00;33.67;;;;;4.14;62.89;101764.75;4911397;28;45480;-83
2024/01/10 10:49:29;;;;;;;;;30.33;30.00;;;;;4.14;63.34;101763.03;4927760;28;46806;-83
2024/01/10 10:51:57;;;;;;;;;33.67;33.00;;;;;4.30;62.06;101770.09;4952161;28;45388;-83
2024/01/10 10:54:37;;;;;;;;;41.00;37.67;;;;;4.32;60.29;101762.25;4911816;28;44919;-84
2024/01/10 10:57:04;;;;;;;;;37.00;29.67;;;;;4.09;60.38;101755.69;4955015;28;45403;-85
2024/01/10 10:59:39;;;;;;;;;29.33;28.33;;;;;4.19;62.21;101753.66;4934094;28;47086;-82
2024/01/10 11:02:09;;;;;;;;;34.00;30.00;;;;;4.17;60.37;101739.50;4926757;28;45519;-81
2024/01/10 11:04:36;;;;;;;;;36.00;28.67;;;;;4.18;62.69;101754.50;4917641;28;45272;-83
2024/01/10 11:07:01;;;;;;;;;37.00;34.00;;;;;4.21;61.15;101752.03;4930305;28;45341;-82
2024/01/10 11:09:28;;;;;;;;;30.00;27.00;;;;;4.33;61.17;101750.91;4931686;28;46792;-80
2024/01/10 11:12:11;;;;;;;;;33.67;33.00;;;;;4.56;62.98;101760.97;4946326;28;44855;-82
2024/01/10 11:15:09;;;;;;;;;25.33;23.67;;;;;4.60;60.40;101747.16;4930851;28;45402;-82
2024/01/10 11:20:32;;;;;;;;;30.67;26.00;;;;;4.67;60.18;101753.66;4794847;23;46562;-81
2024/01/10 11:25:36;;;;;;;;;37.00;28.33;;;;;4.68;61.86;101741.38;5002316;23;45502;-81
2024/01/10 11:28:04;;;;;;;;;45.67;37.67;;;;;4.63;60.18;101730.59;4935363;28;44895;-80
2024/01/10 11:30:51;;;;;;;;;28.67;25.67;;;;;4.79;60.29;101740.25;4930863;28;46916;-79
2024/01/10 11:33:31;;;;;;;;;33.67;32.33;;;;;4.69;59.15;101752.00;4921852;28;45387;-82
2024/01/10 11:39:31;;;;;;;;;31.33;30.67;;;;;4.38;59.22;101724.00;4919078;29;45359;-84
2024/01/10 11:42:03;;;;;;;;;33.33;30.33;;;;;4.54;61.50;101715.19;5266649;23;46656;-83
2024/01/10 11:44:55;;;;;;;;;33.67;31.00;;;;;4.73;60.42;101726.75;4930720;28;44903;-84
2024/01/10 11:47:28;;;;;;;;;34.00;30.67;;;;;4.68;59.48;101718.56;4908014;28;45516;-81
2024/01/10 11:50:04;;;;;;;;;34.00;31.00;;;;;4.89;59.41;101739.91;4912308;28;45804;-81
2024/01/10 11:55:08;;;;;;;;;30.00;26.33;;;;;4.75;59.77;101727.72;4915567;28;44879;-83
2024/01/10 11:57:34;;;;;;;;;36.33;31.00;;;;;4.60;58.73;101719.88;4894147;29;45398;-81
2024/01/10 12:00:05;;;;;;;;;31.67;25.67;;;;;4.64;60.26;101707.78;4908336;29;45494;-80
2024/01/10 12:02:40;;;;;;;;;37.00;33.67;;;;;4.83;60.04;101718.50;4891909;29;47724;-83
2024/01/10 12:05:59;;;;;;;;;35.33;31.67;;;;;4.91;60.20;101737.31;4886095;29;44868;-82
2024/01/10 12:11:39;;;;;;;;;32.33;32.33;;;;;5.04;59.67;101717.81;4801069;23;45253;-81
2024/01/10 12:14:05;;;;;;;;;37.33;32.33;;;;;4.92;59.03;101716.31;4840124;29;45612;-81
2024/01/10 12:17:07;;;;;;;;;33.67;33.33;;;;;5.02;60.33;101725.63;4856102;29;44959;-81
2024/01/10 12:19:53;;;;;;;;;34.00;29.33;;;;;4.95;58.81;101710.34;4850969;29;44980;-82
2024/01/10 12:22:19;;;;;;;;;32.33;32.33;;;;;4.89;60.24;101705.63;4838946;29;45489;-82
2024/01/10 12:25:13;;;;;;;;;34.33;31.67;;;;;4.85;60.06;101673.75;4834742;29;45412;-80
2024/01/10 12:27:40;;;;;;;;;30.00;30.00;;;;;5.16;59.38;101707.91;4852239;29;44954;-82
2024/01/10 12:30:28;;;;;;;;;35.33;31.00;;;;;5.18;57.78;101698.31;4836387;29;45408;-83
2024/01/10 12:33:46;;;;;;;;;32.67;32.00;;;;;5.22;59.27;101702.94;4854073;29;45377;-82
2024/01/10 12:36:12;;;;;;;;;34.33;31.00;;;;;5.05;57.67;101687.97;4834221;29;46579;-81
2024/01/10 12:39:31;;;;;;;;;33.67;32.33;;;;;5.32;60.02;101689.38;4909106;23;45268;-84
2024/01/10 12:42:04;;;;;;;;;30.67;24.33;;;;;4.91;59.26;101635.47;4886973;29;44946;-82
2024/01/10 12:44:48;;;;;;;;;24.67;24.67;;;;;5.27;57.03;101669.81;4907552;29;45405;-84
2024/01/10 12:47:21;;;;;;;;;35.33;31.67;;;;;5.32;56.36;101686.75;4888776;29;46768;-78
2024/01/10 12:49:50;;;;;;;;;30.00;28.33;;;;;4.89;54.93;101666.09;4903356;29;45519;-80
2024/01/10 12:52:19;;;;;;;;;33.67;33.67;;;;;4.65;54.94;101662.19;4888497;29;45481;-80
2024/01/10 12:54:44;;;;;;;;;41.67;36.00;;;;;4.55;55.53;101659.06;4893496;29;45406;-81
2024/01/10 12:57:13;;;;;;;;;27.33;24.00;;;;;4.57;55.67;101681.13;4891889;29;45875;-83
2024/01/10 12:59:45;;;;;;;;;36.67;35.00;;;;;4.54;55.71;101669.50;4908211;29;45711;-81
2024/01/10 13:02:22;;;;;;;;;35.00;29.67;;;;;4.70;58.61;101681.75;4893712;29;44894;-82
2024/01/10 13:05:09;;;;;;;;;23.67;19.67;;;;;4.72;59.01;101666.94;4897197;29;44786;-83
2024/01/10 13:07:49;;;;;;;;;38.00;35.67;;;;;4.92;59.39;101679.44;4908598;29;45524;-81
2024/01/10 13:10:18;;;;;;;;;32.33;30.00;;;;;4.83;57.41;101673.69;4893635;29;45307;-81
2024/01/10 13:12:47;;;;;;;;;34.33;33.00;;;;;4.93;58.81;101678.63;4899843;29;45535;-79
2024/01/10 13:15:15;;;;;;;;;37.67;35.33;;;;;4.87;57.18;101665.13;4885479;29;45533;-79
2024/01/10 13:17:45;;;;;;;;;37.00;33.33;;;;;4.66;57.78;101670.16;4907759;29;46992;-84
2024/01/10 13:20:11;;;;;;;;;32.33;32.33;;;;;4.59;57.78;101666.28;4892733;29;45898;-82
2024/01/10 13:22:46;;;;;;;;;37.67;32.67;;;;;4.63;58.73;101687.56;4910490;28;44837;-81
2024/01/10 13:25:14;;;;;;;;;39.33;36.00;;;;;4.52;56.32;101687.84;4893150;28;45590;-82
2024/01/10 13:27:40;;;;;;;;;27.00;24.33;;;;;4.12;57.38;101640.03;4876106;29;47651;-82
2024/01/10 13:30:17;;;;;;;;;35.00;34.67;;;;;4.30;58.19;101671.72;4890960;29;44882;-80
2024/01/10 13:33:04;;;;;;;;;34.33;28.00;;;;;4.20;57.94;101676.50;4879127;29;44905;-81
2024/01/10 13:35:33;;;;;;;;;36.33;34.33;;;;;4.13;58.23;101655.00;4868014;29;45043;-81
2024/01/10 13:37:59;;;;;;;;;32.33;32.33;;;;;4.12;57.50;101682.16;4879262;29;47184;-79
2024/01/10 13:40:26;;;;;;;;;32.00;25.67;;;;;4.12;56.99;101682.16;4891191;29;44805;-79
2024/01/10 13:42:56;;;;;;;;;37.67;32.00;;;;;4.17;59.30;101683.31;4889702;29;45329;-81
2024/01/10 13:45:27;;;;;;;;;40.67;31.33;;;;;4.24;59.16;101674.03;4903295;28;45495;-82
2024/01/10 13:47:54;;;;;;;;;41.67;34.67;;;;;4.13;57.13;101678.72;4894715;29;46876;-81
2024/01/10 13:50:34;;;;;;;;;37.33;37.33;;;;;4.11;57.69;101654.03;4905302;29;44951;-80
2024/01/10 13:53:00;;;;;;;;;35.33;29.33;;;;;3.88;58.91;101629.06;4901349;29;45604;-81
2024/01/10 13:55:26;;;;;;;;;36.33;32.00;;;;;4.16;58.59;101674.53;4898888;29;45738;-80
2024/01/10 13:57:56;;;;;;;;;38.00;35.00;;;;;3.94;57.43;101667.16;4891985;29;46756;-80
2024/01/10 14:00:22;;;;;;;;;25.33;24.00;;;;;3.86;58.43;101635.97;4896130;29;45245;-80